Terminal Aerodrome Forecast
Issued by NWS

Home | Current Version | Previous Version | Text Only | Print | Product List | Glossary On
Versions: 1 2 3 4 5 6 7 8 9 10 11 12 13 14 15 16 17 18 19 20 21
000
FTUS44 KLIX 231120
TAFMCB
TAF
KMCB 231120Z 2312/2412 VRB03KT P6SM FEW080
     FM240600 18006KT 3SM BR SCT030
     FM240700 17006KT 2SM BR BKN020
     FM240800 17006KT 1SM BR BKN015=

USA.gov is the U.S. government's official web portal to all federal, state and local government web resources and services.